sensor_id;sensor_type;location;lat;lon;timestamp;temperature;humidity
23544;DHT22;11950;51.230;4.012;2023-04-01T00:00:58;12.20;99.90
23544;DHT22;11950;51.230;4.012;2023-04-01T00:03:26;12.20;99.90
23544;DHT22;11950;51.230;4.012;2023-04-01T00:05:54;12.20;99.90
23544;DHT22;11950;51.230;4.012;2023-04-01T00:08:20;12.20;99.90
23544;DHT22;11950;51.230;4.012;2023-04-01T00:10:47;12.20;99.90
23544;DHT22;11950;51.230;4.012;2023-04-01T00:13:14;12.20;99.90
23544;DHT22;11950;51.230;4.012;2023-04-01T00:15:41;12.20;99.90
23544;DHT22;11950;51.230;4.012;2023-04-01T00:18:07;12.20;99.90
23544;DHT22;11950;51.230;4.012;2023-04-01T00:20:34;12.20;99.90
23544;DHT22;11950;51.230;4.012;2023-04-01T00:23:01;12.20;99.90
23544;DHT22;11950;51.230;4.012;2023-04-01T00:25:28;12.20;99.90
23544;DHT22;11950;51.230;4.012;2023-04-01T00:27:54;12.20;99.90
23544;DHT22;11950;51.230;4.012;2023-04-01T00:30:21;12.20;99.90
23544;DHT22;11950;51.230;4.012;2023-04-01T00:32:50;12.20;99.90
23544;DHT22;11950;51.230;4.012;2023-04-01T00:35:17;12.10;99.90
23544;DHT22;11950;51.230;4.012;2023-04-01T00:37:43;12.10;99.90
23544;DHT22;11950;51.230;4.012;2023-04-01T00:40:26;12.20;99.90
23544;DHT22;11950;51.230;4.012;2023-04-01T00:42:53;12.10;99.90
23544;DHT22;11950;51.230;4.012;2023-04-01T00:47:56;12.10;99.90
23544;DHT22;11950;51.230;4.012;2023-04-01T00:50:25;12.10;99.90
23544;DHT22;11950;51.230;4.012;2023-04-01T00:52:52;12.10;99.90
23544;DHT22;11950;51.230;4.012;2023-04-01T00:55:20;12.10;99.90
23544;DHT22;11950;51.230;4.012;2023-04-01T00:57:48;12.10;99.90
23544;DHT22;11950;51.230;4.012;2023-04-01T01:00:17;12.10;99.90
23544;DHT22;11950;51.230;4.012;2023-04-01T01:02:45;12.00;99.90
23544;DHT22;11950;51.230;4.012;2023-04-01T01:05:14;12.00;99.90
23544;DHT22;11950;51.230;4.012;2023-04-01T01:07:57;12.10;99.90
23544;DHT22;11950;51.230;4.012;2023-04-01T01:10:34;12.00;99.90
23544;DHT22;11950;51.230;4.012;2023-04-01T01:13:04;12.00;99.90
23544;DHT22;11950;51.230;4.012;2023-04-01T01:15:41;12.00;99.90
23544;DHT22;11950;51.230;4.012;2023-04-01T01:37:14;11.90;99.90
23544;DHT22;11950;51.230;4.012;2023-04-01T01:39:43;11.90;99.90
23544;DHT22;11950;51.230;4.012;2023-04-01T01:42:14;11.90;99.90
23544;DHT22;11950;51.230;4.012;2023-04-01T01:44:42;11.90;99.90
23544;DHT22;11950;51.230;4.012;2023-04-01T01:47:11;11.90;99.90
23544;DHT22;11950;51.230;4.012;2023-04-01T01:49:39;12.00;99.90
23544;DHT22;11950;51.230;4.012;2023-04-01T01:52:06;11.90;99.90
23544;DHT22;11950;51.230;4.012;2023-04-01T01:54:33;11.90;99.90
23544;DHT22;11950;51.230;4.012;2023-04-01T01:57:08;11.90;99.90
23544;DHT22;11950;51.230;4.012;2023-04-01T01:59:40;11.90;99.90
23544;DHT22;11950;51.230;4.012;2023-04-01T02:02:13;11.90;99.90
23544;DHT22;11950;51.230;4.012;2023-04-01T02:04:43;11.90;99.90
23544;DHT22;11950;51.230;4.012;2023-04-01T02:07:16;11.90;99.90
23544;DHT22;11950;51.230;4.012;2023-04-01T02:09:45;11.80;99.90
23544;DHT22;11950;51.230;4.012;2023-04-01T02:12:14;11.90;99.90
23544;DHT22;11950;51.230;4.012;2023-04-01T02:14:50;11.80;99.90
23544;DHT22;11950;51.230;4.012;2023-04-01T02:17:23;11.80;99.90
23544;DHT22;11950;51.230;4.012;2023-04-01T02:22:38;11.80;99.90
23544;DHT22;11950;51.230;4.012;2023-04-01T02:25:12;11.80;99.90
23544;DHT22;11950;51.230;4.012;2023-04-01T02:27:40;11.80;99.90
23544;DHT22;11950;51.230;4.012;2023-04-01T02:30:08;11.80;99.90
23544;DHT22;11950;51.230;4.012;2023-04-01T02:32:36;11.80;99.90
23544;DHT22;11950;51.230;4.012;2023-04-01T02:35:12;11.80;99.90
23544;DHT22;11950;51.230;4.012;2023-04-01T02:37:40;11.80;99.90
23544;DHT22;11950;51.230;4.012;2023-04-01T02:40:10;11.80;99.90
23544;DHT22;11950;51.230;4.012;2023-04-01T02:42:37;11.80;99.90
23544;DHT22;11950;51.230;4.012;2023-04-01T02:45:05;11.70;99.90
23544;DHT22;11950;51.230;4.012;2023-04-01T02:47:32;11.70;99.90
23544;DHT22;11950;51.230;4.012;2023-04-01T02:49:58;11.70;99.90
23544;DHT22;11950;51.230;4.012;2023-04-01T02:52:25;11.70;99.90
23544;DHT22;11950;51.230;4.012;2023-04-01T02:54:53;11.60;99.90
23544;DHT22;11950;51.230;4.012;2023-04-01T02:57:19;11.60;99.90
23544;DHT22;11950;51.230;4.012;2023-04-01T02:59:47;11.70;99.90
23544;DHT22;11950;51.230;4.012;2023-04-01T03:02:14;11.70;99.90
23544;DHT22;11950;51.230;4.012;2023-04-01T03:04:44;11.70;99.90
23544;DHT22;11950;51.230;4.012;2023-04-01T03:07:10;11.70;99.90
23544;DHT22;11950;51.230;4.012;2023-04-01T03:09:37;11.70;99.90
23544;DHT22;11950;51.230;4.012;2023-04-01T03:12:05;11.60;99.90
23544;DHT22;11950;51.230;4.012;2023-04-01T03:14:37;11.60;99.90
23544;DHT22;11950;51.230;4.012;2023-04-01T03:17:03;11.60;99.90
23544;DHT22;11950;51.230;4.012;2023-04-01T03:19:32;11.60;99.90
23544;DHT22;11950;51.230;4.012;2023-04-01T03:22:02;11.60;99.90
23544;DHT22;11950;51.230;4.012;2023-04-01T03:24:28;11.70;99.90
23544;DHT22;11950;51.230;4.012;2023-04-01T03:26:54;11.60;99.90
23544;DHT22;11950;51.230;4.012;2023-04-01T03:29:21;11.60;99.90
23544;DHT22;11950;51.230;4.012;2023-04-01T03:31:47;11.60;99.90
23544;DHT22;11950;51.230;4.012;2023-04-01T03:34:14;11.60;99.90
23544;DHT22;11950;51.230;4.012;2023-04-01T03:36:41;11.60;99.90
23544;DHT22;11950;51.230;4.012;2023-04-01T03:39:10;11.70;99.90
23544;DHT22;11950;51.230;4.012;2023-04-01T03:41:41;11.70;99.90
23544;DHT22;11950;51.230;4.012;2023-04-01T03:44:07;11.60;99.90
23544;DHT22;11950;51.230;4.012;2023-04-01T03:46:34;11.60;99.90
23544;DHT22;11950;51.230;4.012;2023-04-01T03:49:00;11.60;99.90
23544;DHT22;11950;51.230;4.012;2023-04-01T03:51:27;11.60;99.90
23544;DHT22;11950;51.230;4.012;2023-04-01T03:53:53;11.50;99.90
23544;DHT22;11950;51.230;4.012;2023-04-01T03:56:19;11.50;99.90
23544;DHT22;11950;51.230;4.012;2023-04-01T03:58:46;11.50;99.90
23544;DHT22;11950;51.230;4.012;2023-04-01T04:01:15;11.50;99.90
23544;DHT22;11950;51.230;4.012;2023-04-01T04:03:41;11.50;99.90
23544;DHT22;11950;51.230;4.012;2023-04-01T04:06:11;11.50;99.90
23544;DHT22;11950;51.230;4.012;2023-04-01T04:08:38;11.50;99.90
23544;DHT22;11950;51.230;4.012;2023-04-01T04:11:04;11.50;99.90
23544;DHT22;11950;51.230;4.012;2023-04-01T04:13:31;11.50;99.90
23544;DHT22;11950;51.230;4.012;2023-04-01T04:16:01;11.50;99.90
23544;DHT22;11950;51.230;4.012;2023-04-01T04:18:29;11.50;99.90
23544;DHT22;11950;51.230;4.012;2023-04-01T04:20:55;11.50;99.90
23544;DHT22;11950;51.230;4.012;2023-04-01T04:23:22;11.50;99.90
23544;DHT22;11950;51.230;4.012;2023-04-01T04:25:59;11.50;99.90
23544;DHT22;11950;51.230;4.012;2023-04-01T04:28:28;11.60;99.90
23544;DHT22;11950;51.230;4.012;2023-04-01T04:30:57;11.50;99.90
23544;DHT22;11950;51.230;4.012;2023-04-01T04:33:24;11.50;99.90
23544;DHT22;11950;51.230;4.012;2023-04-01T04:35:51;11.50;99.90
23544;DHT22;11950;51.230;4.012;2023-04-01T04:38:22;11.50;99.90
23544;DHT22;11950;51.230;4.012;2023-04-01T04:40:48;11.50;99.90
23544;DHT22;11950;51.230;4.012;2023-04-01T04:43:15;11.50;99.90
23544;DHT22;11950;51.230;4.012;2023-04-01T04:45:42;11.50;99.90
23544;DHT22;11950;51.230;4.012;2023-04-01T04:48:11;11.50;99.90
23544;DHT22;11950;51.230;4.012;2023-04-01T04:50:46;11.50;99.90
23544;DHT22;11950;51.230;4.012;2023-04-01T04:53:13;11.50;99.90
23544;DHT22;11950;51.230;4.012;2023-04-01T04:55:45;11.50;99.90
23544;DHT22;11950;51.230;4.012;2023-04-01T04:58:22;11.40;99.90
23544;DHT22;11950;51.230;4.012;2023-04-01T05:00:50;11.40;99.90
23544;DHT22;11950;51.230;4.012;2023-04-01T05:03:24;11.40;99.90
23544;DHT22;11950;51.230;4.012;2023-04-01T05:05:53;11.40;99.90
23544;DHT22;11950;51.230;4.012;2023-04-01T05:08:19;11.40;99.90
23544;DHT22;11950;51.230;4.012;2023-04-01T05:10:47;11.40;99.90
23544;DHT22;11950;51.230;4.012;2023-04-01T05:13:13;11.40;99.90
23544;DHT22;11950;51.230;4.012;2023-04-01T05:15:40;11.40;99.90
23544;DHT22;11950;51.230;4.012;2023-04-01T05:18:07;11.40;99.90
23544;DHT22;11950;51.230;4.012;2023-04-01T05:20:34;11.40;99.90
23544;DHT22;11950;51.230;4.012;2023-04-01T05:23:01;11.40;99.90
23544;DHT22;11950;51.230;4.012;2023-04-01T05:25:27;11.40;99.90
23544;DHT22;11950;51.230;4.012;2023-04-01T05:27:54;11.40;99.90
23544;DHT22;11950;51.230;4.012;2023-04-01T05:30:20;11.40;99.90
23544;DHT22;11950;51.230;4.012;2023-04-01T05:32:59;11.40;99.90
23544;DHT22;11950;51.230;4.012;2023-04-01T05:35:25;11.40;99.90
23544;DHT22;11950;51.230;4.012;2023-04-01T05:37:52;11.30;99.90
23544;DHT22;11950;51.230;4.012;2023-04-01T05:40:20;11.30;99.90
23544;DHT22;11950;51.230;4.012;2023-04-01T05:42:47;11.30;99.90
23544;DHT22;11950;51.230;4.012;2023-04-01T05:45:14;11.30;99.90
23544;DHT22;11950;51.230;4.012;2023-04-01T05:48:00;11.40;99.90
23544;DHT22;11950;51.230;4.012;2023-04-01T05:50:29;11.30;99.90
23544;DHT22;11950;51.230;4.012;2023-04-01T05:52:56;11.30;99.90
23544;DHT22;11950;51.230;4.012;2023-04-01T05:55:22;11.40;99.90
23544;DHT22;11950;51.230;4.012;2023-04-01T05:57:50;11.40;99.90
23544;DHT22;11950;51.230;4.012;2023-04-01T06:00:17;11.40;99.90
23544;DHT22;11950;51.230;4.012;2023-04-01T06:02:44;11.40;99.90
23544;DHT22;11950;51.230;4.012;2023-04-01T06:05:21;11.40;99.90
23544;DHT22;11950;51.230;4.012;2023-04-01T06:07:48;11.40;99.90
23544;DHT22;11950;51.230;4.012;2023-04-01T06:10:19;11.40;99.90
23544;DHT22;11950;51.230;4.012;2023-04-01T06:12:59;11.40;99.90
23544;DHT22;11950;51.230;4.012;2023-04-01T06:15:41;11.40;99.90
23544;DHT22;11950;51.230;4.012;2023-04-01T06:18:39;11.40;99.90
23544;DHT22;11950;51.230;4.012;2023-04-01T06:29:46;11.40;99.90
23544;DHT22;11950;51.230;4.012;2023-04-01T06:32:19;11.40;99.90
23544;DHT22;11950;51.230;4.012;2023-04-01T06:35:23;11.40;99.90
23544;DHT22;11950;51.230;4.012;2023-04-01T06:38:23;11.40;99.90
23544;DHT22;11950;51.230;4.012;2023-04-01T06:43:52;11.40;99.90
23544;DHT22;11950;51.230;4.012;2023-04-01T06:46:58;11.40;99.90
23544;DHT22;11950;51.230;4.012;2023-04-01T06:56:29;11.40;99.90
23544;DHT22;11950;51.230;4.012;2023-04-01T06:59:13;11.40;99.90
23544;DHT22;11950;51.230;4.012;2023-04-01T07:01:51;11.40;99.90
23544;DHT22;11950;51.230;4.012;2023-04-01T07:04:42;11.50;99.90
23544;DHT22;11950;51.230;4.012;2023-04-01T07:07:35;11.40;99.90
23544;DHT22;11950;51.230;4.012;2023-04-01T07:10:31;11.50;99.90
23544;DHT22;11950;51.230;4.012;2023-04-01T07:13:27;11.50;99.90
23544;DHT22;11950;51.230;4.012;2023-04-01T07:21:41;11.60;99.90
23544;DHT22;11950;51.230;4.012;2023-04-01T07:24:32;11.60;99.90
23544;DHT22;11950;51.230;4.012;2023-04-01T07:27:09;11.60;99.90
23544;DHT22;11950;51.230;4.012;2023-04-01T07:29:37;11.60;99.90
23544;DHT22;11950;51.230;4.012;2023-04-01T07:32:21;11.60;99.90
23544;DHT22;11950;51.230;4.012;2023-04-01T07:43:06;11.60;99.90
23544;DHT22;11950;51.230;4.012;2023-04-01T07:51:37;11.60;99.90
23544;DHT22;11950;51.230;4.012;2023-04-01T07:57:24;11.60;99.90
23544;DHT22;11950;51.230;4.012;2023-04-01T08:00:22;11.70;99.90
23544;DHT22;11950;51.230;4.012;2023-04-01T08:05:53;11.60;99.90
23544;DHT22;11950;51.230;4.012;2023-04-01T08:08:43;11.70;99.90
23544;DHT22;11950;51.230;4.012;2023-04-01T08:12:01;11.70;99.90
23544;DHT22;11950;51.230;4.012;2023-04-01T08:26:08;11.80;99.90
23544;DHT22;11950;51.230;4.012;2023-04-01T08:33:49;11.90;99.90
23544;DHT22;11950;51.230;4.012;2023-04-01T08:36:29;11.90;99.90
23544;DHT22;11950;51.230;4.012;2023-04-01T08:39:15;11.90;99.90
23544;DHT22;11950;51.230;4.012;2023-04-01T09:04:36;12.00;99.90
23544;DHT22;11950;51.230;4.012;2023-04-01T09:16:52;12.10;99.90
23544;DHT22;11950;51.230;4.012;2023-04-01T09:22:09;12.10;99.90
23544;DHT22;11950;51.230;4.012;2023-04-01T09:27:44;12.10;99.90
23544;DHT22;11950;51.230;4.012;2023-04-01T09:30:31;12.10;99.90
23544;DHT22;11950;51.230;4.012;2023-04-01T09:35:48;12.10;99.90
23544;DHT22;11950;51.230;4.012;2023-04-01T09:46:35;12.00;99.90
23544;DHT22;11950;51.230;4.012;2023-04-01T09:54:36;12.10;99.90
23544;DHT22;11950;51.230;4.012;2023-04-01T09:57:27;12.10;99.90
23544;DHT22;11950;51.230;4.012;2023-04-01T10:11:11;12.20;99.90
23544;DHT22;11950;51.230;4.012;2023-04-01T10:22:24;12.20;99.90
23544;DHT22;11950;51.230;4.012;2023-04-01T10:27:49;12.10;99.90
23544;DHT22;11950;51.230;4.012;2023-04-01T10:54:13;12.30;99.90
23544;DHT22;11950;51.230;4.012;2023-04-01T11:09:48;12.40;99.90
23544;DHT22;11950;51.230;4.012;2023-04-01T11:15:31;12.30;99.90
23544;DHT22;11950;51.230;4.012;2023-04-01T11:26:56;12.40;99.90
23544;DHT22;11950;51.230;4.012;2023-04-01T11:30:12;12.30;99.90
23544;DHT22;11950;51.230;4.012;2023-04-01T11:35:55;12.40;99.90
23544;DHT22;11950;51.230;4.012;2023-04-01T11:44:24;12.40;99.90
23544;DHT22;11950;51.230;4.012;2023-04-01T11:49:59;12.50;99.90
23544;DHT22;11950;51.230;4.012;2023-04-01T12:06:52;12.50;99.90
23544;DHT22;11950;51.230;4.012;2023-04-01T12:09:40;12.50;99.90
23544;DHT22;11950;51.230;4.012;2023-04-01T12:12:36;12.50;99.90
23544;DHT22;11950;51.230;4.012;2023-04-01T12:18:40;12.50;99.90
23544;DHT22;11950;51.230;4.012;2023-04-01T12:26:43;12.40;99.90
23544;DHT22;11950;51.230;4.012;2023-04-01T12:29:37;12.40;99.90
23544;DHT22;11950;51.230;4.012;2023-04-01T12:35:27;12.50;99.90
23544;DHT22;11950;51.230;4.012;2023-04-01T12:39:20;12.50;99.90
23544;DHT22;11950;51.230;4.012;2023-04-01T12:46:54;12.50;99.90
23544;DHT22;11950;51.230;4.012;2023-04-01T12:52:43;12.50;99.90
23544;DHT22;11950;51.230;4.012;2023-04-01T12:55:44;12.50;99.90
23544;DHT22;11950;51.230;4.012;2023-04-01T13:01:27;12.60;99.90
23544;DHT22;11950;51.230;4.012;2023-04-01T13:17:50;12.50;99.90
23544;DHT22;11950;51.230;4.012;2023-04-01T13:26:10;12.50;99.90
23544;DHT22;11950;51.230;4.012;2023-04-01T13:37:34;12.50;99.90
23544;DHT22;11950;51.230;4.012;2023-04-01T13:43:23;12.40;99.90
23544;DHT22;11950;51.230;4.012;2023-04-01T14:31:48;12.60;99.90
23544;DHT22;11950;51.230;4.012;2023-04-01T14:40:27;12.60;99.90
23544;DHT22;11950;51.230;4.012;2023-04-01T14:48:56;12.50;99.90
23544;DHT22;11950;51.230;4.012;2023-04-01T14:51:15;12.50;99.90
23544;DHT22;11950;51.230;4.012;2023-04-01T14:56:48;12.40;99.90
23544;DHT22;11950;51.230;4.012;2023-04-01T14:59:17;12.40;99.90
23544;DHT22;11950;51.230;4.012;2023-04-01T15:02:09;12.40;99.90
23544;DHT22;11950;51.230;4.012;2023-04-01T15:04:46;12.40;99.90
23544;DHT22;11950;51.230;4.012;2023-04-01T15:35:20;12.20;99.90
23544;DHT22;11950;51.230;4.012;2023-04-01T15:38:24;12.20;99.90
23544;DHT22;11950;51.230;4.012;2023-04-01T15:52:03;12.30;99.90
23544;DHT22;11950;51.230;4.012;2023-04-01T16:00:23;12.30;99.90
23544;DHT22;11950;51.230;4.012;2023-04-01T16:10:41;12.30;99.90
23544;DHT22;11950;51.230;4.012;2023-04-01T16:13:22;12.30;99.90
23544;DHT22;11950;51.230;4.012;2023-04-01T16:22:27;12.20;99.90
23544;DHT22;11950;51.230;4.012;2023-04-01T16:28:48;12.10;99.90
23544;DHT22;11950;51.230;4.012;2023-04-01T16:31:48;12.10;99.90
23544;DHT22;11950;51.230;4.012;2023-04-01T16:34:36;12.10;99.90
23544;DHT22;11950;51.230;4.012;2023-04-01T16:39:41;12.10;99.90
23544;DHT22;11950;51.230;4.012;2023-04-01T16:42:39;12.10;99.90
23544;DHT22;11950;51.230;4.012;2023-04-01T16:47:38;12.10;99.90
23544;DHT22;11950;51.230;4.012;2023-04-01T16:50:28;12.10;99.90
23544;DHT22;11950;51.230;4.012;2023-04-01T16:53:17;12.10;99.90
23544;DHT22;11950;51.230;4.012;2023-04-01T16:56:10;12.10;99.90
23544;DHT22;11950;51.230;4.012;2023-04-01T16:59:03;12.00;99.90
23544;DHT22;11950;51.230;4.012;2023-04-01T17:01:53;12.00;99.90
23544;DHT22;11950;51.230;4.012;2023-04-01T17:07:38;12.00;99.90
23544;DHT22;11950;51.230;4.012;2023-04-01T17:18:35;11.90;99.90
23544;DHT22;11950;51.230;4.012;2023-04-01T17:21:18;11.90;99.90
23544;DHT22;11950;51.230;4.012;2023-04-01T17:23:53;11.90;99.90
23544;DHT22;11950;51.230;4.012;2023-04-01T17:26:37;11.90;99.90
23544;DHT22;11950;51.230;4.012;2023-04-01T17:32:46;11.80;99.90
23544;DHT22;11950;51.230;4.012;2023-04-01T17:35:17;11.80;99.90
23544;DHT22;11950;51.230;4.012;2023-04-01T17:40:37;11.70;99.90
23544;DHT22;11950;51.230;4.012;2023-04-01T17:45:56;11.70;99.90
23544;DHT22;11950;51.230;4.012;2023-04-01T17:53:33;11.60;99.90
23544;DHT22;11950;51.230;4.012;2023-04-01T18:04:30;11.60;99.90
23544;DHT22;11950;51.230;4.012;2023-04-01T18:12:32;11.50;99.90
23544;DHT22;11950;51.230;4.012;2023-04-01T18:15:17;11.60;99.90
23544;DHT22;11950;51.230;4.012;2023-04-01T18:25:46;11.50;99.90
23544;DHT22;11950;51.230;4.012;2023-04-01T18:31:17;11.50;99.90
23544;DHT22;11950;51.230;4.012;2023-04-01T18:39:03;11.50;99.90
23544;DHT22;11950;51.230;4.012;2023-04-01T18:47:14;11.40;99.90
23544;DHT22;11950;51.230;4.012;2023-04-01T18:52:34;11.50;99.90
23544;DHT22;11950;51.230;4.012;2023-04-01T18:57:49;11.40;99.90
23544;DHT22;11950;51.230;4.012;2023-04-01T19:00:22;11.40;99.90
23544;DHT22;11950;51.230;4.012;2023-04-01T19:05:48;11.40;99.90
23544;DHT22;11950;51.230;4.012;2023-04-01T19:08:33;11.40;99.90
23544;DHT22;11950;51.230;4.012;2023-04-01T19:17:23;11.40;99.90
23544;DHT22;11950;51.230;4.012;2023-04-01T19:20:31;11.40;99.90
23544;DHT22;11950;51.230;4.012;2023-04-01T19:25:44;11.40;99.90
23544;DHT22;11950;51.230;4.012;2023-04-01T19:28:43;11.40;99.90
23544;DHT22;11950;51.230;4.012;2023-04-01T19:31:34;11.40;99.90
23544;DHT22;11950;51.230;4.012;2023-04-01T19:34:34;11.40;99.90
23544;DHT22;11950;51.230;4.012;2023-04-01T19:37:28;11.40;99.90
23544;DHT22;11950;51.230;4.012;2023-04-01T19:45:37;11.40;99.90
23544;DHT22;11950;51.230;4.012;2023-04-01T19:50:57;11.40;99.90
23544;DHT22;11950;51.230;4.012;2023-04-01T19:56:18;11.40;99.90
23544;DHT22;11950;51.230;4.012;2023-04-01T20:04:04;11.40;99.90
23544;DHT22;11950;51.230;4.012;2023-04-01T20:06:44;11.40;99.90
23544;DHT22;11950;51.230;4.012;2023-04-01T20:09:24;11.40;99.90
23544;DHT22;11950;51.230;4.012;2023-04-01T20:11:59;11.40;99.90
23544;DHT22;11950;51.230;4.012;2023-04-01T20:14:40;11.50;99.90
23544;DHT22;11950;51.230;4.012;2023-04-01T20:22:34;11.40;99.90
23544;DHT22;11950;51.230;4.012;2023-04-01T20:25:19;11.50;99.90
23544;DHT22;11950;51.230;4.012;2023-04-01T20:33:30;11.40;99.90
23544;DHT22;11950;51.230;4.012;2023-04-01T20:44:13;11.40;99.90
23544;DHT22;11950;51.230;4.012;2023-04-01T20:46:48;11.50;99.90
23544;DHT22;11950;51.230;4.012;2023-04-01T21:06:17;11.40;99.90
23544;DHT22;11950;51.230;4.012;2023-04-01T21:08:53;11.40;99.90
23544;DHT22;11950;51.230;4.012;2023-04-01T21:14:45;11.40;99.90
23544;DHT22;11950;51.230;4.012;2023-04-01T21:23:04;11.40;99.90
23544;DHT22;11950;51.230;4.012;2023-04-01T21:26:04;11.40;99.90
23544;DHT22;11950;51.230;4.012;2023-04-01T21:34:32;11.40;99.90
23544;DHT22;11950;51.230;4.012;2023-04-01T22:10:59;11.40;99.90
23544;DHT22;11950;51.230;4.012;2023-04-01T22:13:41;11.40;99.90
23544;DHT22;11950;51.230;4.012;2023-04-01T22:16:44;11.30;99.90
23544;DHT22;11950;51.230;4.012;2023-04-01T22:19:46;11.30;99.90
23544;DHT22;11950;51.230;4.012;2023-04-01T22:27:45;11.40;99.90
23544;DHT22;11950;51.230;4.012;2023-04-01T22:30:24;11.40;99.90
23544;DHT22;11950;51.230;4.012;2023-04-01T22:33:09;11.30;99.90
23544;DHT22;11950;51.230;4.012;2023-04-01T22:47:21;11.30;99.90
23544;DHT22;11950;51.230;4.012;2023-04-01T22:50:02;11.30;99.90
23544;DHT22;11950;51.230;4.012;2023-04-01T22:52:35;11.30;99.90
23544;DHT22;11950;51.230;4.012;2023-04-01T22:55:25;11.30;99.90
23544;DHT22;11950;51.230;4.012;2023-04-01T22:58:09;11.30;99.90
23544;DHT22;11950;51.230;4.012;2023-04-01T23:00:58;11.30;99.90
23544;DHT22;11950;51.230;4.012;2023-04-01T23:03:28;11.30;99.90
23544;DHT22;11950;51.230;4.012;2023-04-01T23:06:01;11.30;99.90
23544;DHT22;11950;51.230;4.012;2023-04-01T23:11:22;11.30;99.90
23544;DHT22;11950;51.230;4.012;2023-04-01T23:16:53;11.30;99.90
23544;DHT22;11950;51.230;4.012;2023-04-01T23:19:37;11.30;99.90
23544;DHT22;11950;51.230;4.012;2023-04-01T23:22:21;11.30;99.90
23544;DHT22;11950;51.230;4.012;2023-04-01T23:25:12;11.20;99.90
23544;DHT22;11950;51.230;4.012;2023-04-01T23:35:48;11.20;99.90
23544;DHT22;11950;51.230;4.012;2023-04-01T23:38:15;11.20;99.90
23544;DHT22;11950;51.230;4.012;2023-04-01T23:40:42;11.10;99.90
23544;DHT22;11950;51.230;4.012;2023-04-01T23:43:23;11.10;99.90
23544;DHT22;11950;51.230;4.012;2023-04-01T23:45:50;11.10;99.90
23544;DHT22;11950;51.230;4.012;2023-04-01T23:48:17;11.10;99.90
23544;DHT22;11950;51.230;4.012;2023-04-01T23:50:46;11.00;99.90
23544;DHT22;11950;51.230;4.012;2023-04-01T23:53:22;11.00;99.90
23544;DHT22;11950;51.230;4.012;2023-04-01T23:55:51;11.00;99.90
